CDT,Max TemperatureF,Mean TemperatureF,Min TemperatureF,Max Dew PointF,MeanDew PointF,Min DewpointF,Max Humidity, Mean Humidity, Min Humidity, Max Sea Level PressureIn, Mean Sea Level PressureIn, Min Sea Level PressureIn, Max VisibilityMiles, Mean VisibilityMiles, Min VisibilityMiles, Max Wind SpeedMPH, Mean Wind SpeedMPH, Max Gust SpeedMPH,PrecipitationIn, CloudCover, Events, WindDirDegrees
2012-10-1,77,62,46,50,43,34,93,56,22,29.96,29.91,29.89,10,9,1,28,7,34,0.00,1,,2
2012-10-2,73,56,39,45,39,32,87,55,31,29.98,29.93,29.86,10,9,2,10,4,13,0.00,2,,9
2012-10-3,78,56,35,45,37,34,100,56,20,29.94,29.89,29.82,10,7,0,22,6,29,0.00,1,,186
2012-10-4,62,54,44,43,36,30,82,56,38,30.30,30.16,29.91,10,6,0,23,12,31,0.00,4,Rain,323
2012-10-5,50,40,30,32,26,21,87,62,32,30.32,30.27,30.22,10,10,9,16,6,22,0.00,1,,308
2012-10-6,46,35,24,25,23,19,80,58,43,30.35,30.30,30.27,10,10,10,18,7,24,0.00,3,,333
2012-10-7,55,37,19,27,22,16,86,58,25,30.29,30.18,30.03,10,10,9,21,4,25,0.00,0,,225
2012-10-8,68,54,39,34,32,28,75,51,24,30.03,29.90,29.80,10,9,3,26,13,33,0.00,0,,198
2012-10-9,55,44,32,43,33,25,75,57,37,30.12,29.94,29.81,10,10,5,23,8,31,0.00,2,Rain,290
2012-10-10,60,43,26,30,26,19,87,56,23,30.23,30.14,30.06,10,10,4,14,5,21,0.00,0,,218
2012-10-11,64,50,37,37,32,23,81,52,32,30.34,30.12,30.02,10,10,9,23,11,28,0.00,3,,260
2012-10-12,59,46,32,45,26,18,72,47,21,30.38,30.26,30.01,10,10,2,18,10,28,0.04,4,,110
2012-10-13,73,63,53,66,61,48,100,90,69,29.99,29.77,29.61,10,8,1,21,11,28,0.78,8,Rain,179
2012-10-14,64,55,44,61,47,37,100,74,37,29.97,29.79,29.57,10,8,2,25,12,33,0.62,3,Rain,326
2012-10-15,71,53,35,46,41,34,100,64,35,30.00,29.92,29.79,10,10,7,13,3,17,0.00,1,,181
2012-10-16,77,64,50,52,48,45,87,63,34,29.78,29.55,29.43,10,10,9,16,8,21,0.00,0,,211
2012-10-17,62,55,48,55,43,25,88,60,37,29.56,29.46,29.33,10,10,3,31,12,38,0.05,5,Rain,263
2012-10-18,50,46,42,43,35,23,93,70,35,29.54,29.48,29.42,10,8,3,31,18,45,0.16,7,Rain,282
2012-10-19,46,44,42,43,41,39,93,88,81,29.81,29.69,29.53,10,9,3,24,19,34,0.05,8,Rain,317
2012-10-20,62,48,35,43,41,36,100,74,42,29.84,29.79,29.72,10,9,0,10,4,16,0.00,2,Fog,158
2012-10-21,78,62,46,64,53,41,88,72,51,29.81,29.77,29.73,10,10,8,15,6,21,0.00,3,,165
2012-10-22,71,66,60,68,64,59,100,93,73,29.82,29.78,29.75,10,6,1,17,5,22,0.19,7,Rain,79
2012-10-23,77,68,59,64,61,59,100,87,61,29.79,29.73,29.66,10,6,0,17,9,24,0.00,6,Fog,196
2012-10-24,75,62,48,75,58,48,100,96,69,29.77,29.73,29.69,10,4,0,18,7,23,0.26,7,Fog-Rain,319
2012-10-25,50,44,37,50,36,28,100,85,70,30.31,29.98,29.64,10,8,2,31,17,41,0.59,8,Rain,340
2012-10-26,42,36,30,28,27,25,93,70,53,30.48,30.41,30.30,10,10,10,16,8,21,0.00,7,,326
2012-10-27,42,35,28,32,26,21,93,65,42,30.41,30.34,30.26,10,10,7,7,3,13,0.00,4,,330
2012-10-28,50,41,32,32,29,28,93,67,43,30.34,30.28,30.23,10,8,0,12,3,16,0.00,4,,157
2012-10-29,55,46,37,32,28,25,81,52,38,30.28,30.21,30.13,10,10,10,18,8,25,0.00,4,,154
2012-10-30,50,40,30,32,28,23,93,63,35,30.15,30.08,30.03,10,10,8,14,4,16,0.00,5,,55
2012-10-31,57,42,28,36,30,27,93,69,36,30.07,30.03,29.98,10,10,8,7,2,,0.00,2,,327